createdAt,value
2022-08-29T03:17:17.018Z,44.22
2022-08-29T03:19:47.569Z,47.85
2022-08-29T03:22:17.366Z,49.70
2022-08-29T03:24:47.274Z,60.08
2022-08-29T03:27:18.478Z,61.00
2022-08-29T03:29:49.352Z,72.72
2022-08-29T03:32:20.699Z,72.95
2022-08-29T03:34:49.480Z,78.60
2022-08-29T03:37:22.390Z,78.03
2022-08-29T03:39:52.884Z,76.95
2022-08-29T03:42:24.378Z,82.30
2022-08-29T03:44:52.674Z,84.82
2022-08-29T03:47:22.366Z,80.00
2022-08-29T03:49:52.392Z,77.18
2022-08-29T03:52:20.569Z,79.25
2022-08-29T03:54:48.758Z,71.70
2022-08-29T03:57:16.969Z,75.38
2022-08-29T03:59:45.100Z,74.63
2022-08-29T04:02:13.315Z,79.20
2022-08-29T04:05:02.596Z,84.90
2022-08-29T04:07:39.567Z,75.07
2022-08-29T04:10:09.229Z,74.03
2022-08-29T04:12:37.864Z,85.90
2022-08-29T04:15:07.230Z,76.80
2022-08-29T04:17:35.822Z,72.82
2022-08-29T04:20:07.265Z,99.88
2022-08-29T04:22:38.107Z,77.72
2022-08-29T04:25:08.582Z,89.07
2022-08-29T04:27:37.841Z,89.47
2022-08-29T04:30:07.954Z,81.63
2022-08-29T04:32:36.264Z,81.45
2022-08-29T04:35:06.677Z,82.10
2022-08-29T04:37:35.108Z,93.60
2022-08-29T04:40:05.226Z,78.32
2022-08-29T04:42:38.458Z,71.55
2022-08-29T04:45:08.786Z,75.72
2022-08-29T04:47:37.513Z,70.78
2022-08-29T04:50:08.715Z,69.72
2022-08-29T04:52:37.730Z,70.55
2022-08-29T04:55:07.247Z,64.35
2022-08-29T04:57:41.053Z,65.07
2022-08-29T05:00:16.067Z,57.72
2022-08-29T05:02:45.595Z,55.67
2022-08-29T05:05:19.086Z,59.25
2022-08-29T05:07:47.575Z,56.42
2022-08-29T05:10:19.153Z,56.72
2022-08-29T05:12:47.736Z,54.72
2022-08-29T05:15:17.186Z,45.72
2022-08-29T05:17:45.934Z,46.10
2022-08-29T05:20:16.755Z,49.30
2022-08-29T05:22:45.068Z,50.15
2022-08-29T05:25:17.568Z,43.63
2022-08-29T05:27:46.439Z,43.67
2022-08-29T05:30:19.845Z,46.33
2022-08-29T05:33:02.375Z,37.78
2022-08-29T05:35:32.264Z,35.08
2022-08-29T05:38:00.493Z,35.88
2022-08-29T05:40:29.150Z,32.08
2022-08-29T05:42:57.576Z,31.80
2022-08-29T05:45:26.272Z,35.45
2022-08-29T05:47:56.421Z,28.48
2022-08-29T05:50:24.959Z,22.33
2022-08-29T05:52:54.752Z,20.73
2022-08-29T05:55:23.507Z,19.45
2022-08-29T05:57:54.581Z,19.83
2022-08-29T06:00:25.186Z,14.05
2022-08-29T06:02:55.014Z,11.95
2022-08-29T06:05:23.414Z,13.55
2022-08-29T06:07:55.162Z,11.25
2022-08-29T06:10:23.770Z,9.70
2022-08-29T06:12:52.054Z,10.63
2022-08-29T06:15:20.752Z,9.85
2022-08-29T06:17:50.667Z,8.88
2022-08-29T06:20:19.117Z,10.95
2022-08-29T06:22:47.527Z,8.98
2022-08-29T06:25:38.105Z,11.15
2022-08-29T06:28:05.949Z,9.65
2022-08-29T06:30:35.116Z,11.40
2022-08-29T06:33:03.670Z,10.10
2022-08-29T06:35:32.027Z,8.35
2022-08-29T06:38:00.271Z,9.75
2022-08-29T06:40:29.975Z,7.70
2022-08-29T06:42:58.450Z,9.02
2022-08-29T06:45:28.817Z,8.20
2022-08-29T06:47:57.062Z,5.88
2022-08-29T06:50:25.419Z,6.22
2022-08-29T06:52:55.618Z,7.63
2022-08-29T06:55:24.355Z,7.47
2022-08-29T06:57:54.855Z,6.88
2022-08-29T07:00:26.409Z,8.10
2022-08-29T07:02:55.348Z,6.75
2022-08-29T07:05:26.143Z,9.02
2022-08-29T07:07:54.650Z,8.00
2022-08-29T07:10:23.080Z,7.10
2022-08-29T07:12:55.884Z,8.65
2022-08-29T07:15:25.075Z,6.90
2022-08-29T07:17:57.868Z,8.80
2022-08-29T07:20:30.160Z,8.60
2022-08-29T07:22:58.646Z,9.77
2022-08-29T07:25:29.214Z,8.85
2022-08-29T07:27:59.048Z,8.75
2022-08-29T07:30:28.380Z,9.65
2022-08-29T07:32:56.733Z,10.75
2022-08-29T07:35:30.366Z,11.85
2022-08-29T07:38:01.297Z,14.63
2022-08-29T07:40:32.918Z,14.30
2022-08-29T07:43:05.222Z,12.68
2022-08-29T07:45:33.679Z,15.27
2022-08-29T07:48:02.145Z,13.18
2022-08-29T07:50:32.136Z,11.30
2022-08-29T07:53:00.742Z,14.52
2022-08-29T07:55:29.072Z,15.43
2022-08-29T07:57:57.506Z,14.95
2022-08-29T08:00:27.244Z,18.38
2022-08-29T08:02:55.536Z,19.98
2022-08-29T08:05:25.648Z,21.85
2022-08-29T08:07:55.626Z,24.15
2022-08-29T08:10:24.783Z,20.17
2022-08-29T08:12:53.057Z,21.23
2022-08-29T08:15:23.391Z,20.33
2022-08-29T08:17:52.890Z,19.52
2022-08-29T08:20:21.185Z,19.63
2022-08-29T08:22:49.441Z,22.25
2022-08-29T08:25:17.837Z,28.45
2022-08-29T08:27:52.844Z,18.90
2022-08-29T08:30:21.941Z,17.48
2022-08-29T08:32:55.287Z,15.50
2022-08-29T08:35:23.834Z,15.50
2022-08-29T08:37:52.868Z,15.60
2022-08-29T08:40:26.830Z,12.52
2022-08-29T08:43:00.448Z,19.40
2022-08-29T08:45:34.629Z,12.95
2022-08-29T08:48:09.347Z,15.88
2022-08-29T08:50:44.598Z,10.98
2022-08-29T08:53:19.465Z,11.90
2022-08-29T08:55:50.546Z,15.43
2022-08-29T08:58:31.832Z,9.93
2022-08-29T09:01:04.895Z,10.48
2022-08-29T09:03:57.541Z,13.40
2022-08-29T09:06:40.909Z,11.27
2022-08-29T09:09:18.622Z,12.27
2022-08-29T09:11:56.927Z,12.40
2022-08-29T09:14:49.322Z,9.07
2022-08-29T09:17:23.028Z,11.82
2022-08-29T09:19:52.689Z,12.18
2022-08-29T09:22:26.731Z,24.65
2022-08-29T09:25:03.606Z,10.57
2022-08-29T09:27:34.999Z,12.95
2022-08-29T09:30:09.175Z,14.80
2022-08-29T09:32:54.273Z,13.73
2022-08-29T09:35:26.725Z,12.20
2022-08-29T09:38:01.310Z,11.55
2022-08-29T09:40:45.971Z,8.75
2022-08-29T09:43:20.819Z,10.38
2022-08-29T09:46:06.493Z,10.18
2022-08-29T09:48:41.802Z,9.95
2022-08-29T09:51:14.805Z,13.25
2022-08-29T09:53:43.765Z,15.55
2022-08-29T09:56:19.896Z,7.10
2022-08-29T09:59:00.822Z,7.78
2022-08-29T10:01:30.692Z,9.38
2022-08-29T10:04:01.404Z,7.45
2022-08-29T10:06:34.180Z,14.63
2022-08-29T10:09:06.528Z,8.65
2022-08-29T10:11:39.886Z,10.35
2022-08-29T10:14:12.598Z,7.68
2022-08-29T10:16:55.965Z,7.38
2022-08-29T10:19:34.247Z,9.68
2022-08-29T10:22:15.098Z,10.25
2022-08-29T10:24:55.696Z,8.25
2022-08-29T10:27:32.104Z,9.23
2022-08-29T10:30:11.078Z,8.40
2022-08-29T10:33:12.583Z,8.20
2022-08-29T10:35:52.443Z,8.43
2022-08-29T10:38:44.602Z,8.65
2022-08-29T10:41:26.058Z,7.13
2022-08-29T10:44:03.295Z,7.97
2022-08-29T10:46:57.162Z,6.10
2022-08-29T10:49:40.770Z,9.77
2022-08-29T10:52:21.869Z,11.25
2022-08-29T10:54:56.078Z,6.97
2022-08-29T10:57:41.151Z,8.15
2022-08-29T11:00:15.069Z,8.00
2022-08-29T11:02:49.369Z,8.25
2022-08-29T11:05:24.351Z,9.35
2022-08-29T11:08:01.609Z,9.38
2022-08-29T11:10:40.420Z,7.93
2022-08-29T11:13:14.603Z,7.20
2022-08-29T11:15:45.758Z,9.55
2022-08-29T11:18:25.938Z,9.20
2022-08-29T11:20:58.439Z,7.35
2022-08-29T11:23:33.155Z,8.73
2022-08-29T11:26:09.168Z,8.35
2022-08-29T11:31:23.210Z,8.95
2022-08-29T11:34:03.123Z,6.55
2022-08-29T11:36:48.839Z,6.20
2022-08-29T11:39:42.143Z,7.05
2022-08-29T11:42:15.117Z,4.38
2022-08-29T11:44:49.394Z,7.18
2022-08-29T11:47:40.745Z,6.72
2022-08-29T11:50:29.341Z,5.80
2022-08-29T11:53:04.895Z,10.65
2022-08-29T11:55:36.857Z,4.30
2022-08-29T11:58:29.352Z,7.00
2022-08-29T12:01:00.169Z,3.75
2022-08-29T12:03:53.153Z,5.32
2022-08-29T12:07:01.394Z,4.43
2022-08-29T12:09:50.641Z,6.00
2022-08-29T12:12:36.941Z,5.72
2022-08-29T12:15:45.867Z,5.00
2022-08-29T12:18:50.806Z,7.03
2022-08-29T12:21:48.869Z,4.80
2022-08-29T12:24:38.942Z,3.85
2022-08-29T12:27:22.386Z,4.68
2022-08-29T12:29:53.122Z,5.05
2022-08-29T12:32:40.027Z,5.80
2022-08-29T12:35:25.713Z,3.45
2022-08-29T12:38:09.699Z,4.55
2022-08-29T12:40:59.242Z,4.10
2022-08-29T12:43:34.455Z,4.32
2022-08-29T12:46:04.859Z,4.38
2022-08-29T12:48:37.996Z,4.05
2022-08-29T12:51:07.818Z,5.45
2022-08-29T12:53:37.047Z,6.68
2022-08-29T12:56:15.072Z,10.70
2022-08-29T12:58:46.314Z,6.05
2022-08-29T13:01:26.733Z,5.43
2022-08-29T13:04:00.670Z,9.27
2022-08-29T13:06:31.847Z,6.47
2022-08-29T13:09:00.894Z,5.43
2022-08-29T13:11:32.169Z,9.35
2022-08-29T13:14:09.609Z,5.75
2022-08-29T13:16:39.363Z,4.07
2022-08-29T13:19:19.860Z,5.30
2022-08-29T13:21:49.587Z,7.65
2022-08-29T13:24:20.513Z,4.13
2022-08-29T13:27:04.674Z,4.68
2022-08-29T13:29:38.864Z,3.55
2022-08-29T13:32:20.687Z,3.80
2022-08-29T13:35:04.058Z,4.00
2022-08-29T13:37:35.965Z,3.15
2022-08-29T13:40:33.351Z,4.05
2022-08-29T13:43:03.032Z,4.93
2022-08-29T13:45:31.728Z,6.60
2022-08-29T13:48:12.109Z,7.63
2022-08-29T13:50:40.592Z,3.28
2022-08-29T13:53:10.489Z,6.55
2022-08-29T13:55:38.775Z,6.53
2022-08-29T13:58:06.953Z,6.35
2022-08-29T14:00:35.797Z,6.57
2022-08-29T14:03:06.550Z,4.90
2022-08-29T14:05:35.757Z,4.93
2022-08-29T14:08:05.398Z,6.95
2022-08-29T14:10:35.326Z,7.80
2022-08-29T14:13:04.121Z,3.67
2022-08-29T14:15:32.649Z,5.20
2022-08-29T14:18:00.889Z,4.40
2022-08-29T14:20:29.090Z,6.07
2022-08-29T14:22:57.434Z,2.75
2022-08-29T14:25:25.909Z,2.92
2022-08-29T14:27:55.791Z,6.35
2022-08-29T14:30:25.911Z,4.47
2022-08-29T14:32:54.450Z,3.17
2022-08-29T14:35:26.658Z,2.85
2022-08-29T14:38:01.509Z,4.30
2022-08-29T14:40:31.146Z,3.38
2022-08-29T14:43:01.885Z,4.63
2022-08-29T14:45:31.964Z,2.58
2022-08-29T14:48:01.037Z,3.13
2022-08-29T14:50:29.291Z,3.83
2022-08-29T14:52:57.469Z,5.90
2022-08-29T14:55:25.926Z,2.67
2022-08-29T14:57:54.286Z,5.28
2022-08-29T15:00:27.093Z,4.03
2022-08-29T15:02:55.384Z,3.63
2022-08-29T15:05:24.453Z,2.75
2022-08-29T15:07:52.593Z,7.38
2022-08-29T15:10:24.315Z,4.78
2022-08-29T15:12:53.016Z,4.18
2022-08-29T15:15:21.378Z,3.58
2022-08-29T15:17:50.912Z,3.30
2022-08-29T15:20:37.256Z,3.40
2022-08-29T15:23:06.933Z,4.43
2022-08-29T15:25:35.493Z,3.92
2022-08-29T15:28:05.686Z,5.32
2022-08-29T15:30:34.426Z,5.38
2022-08-29T15:33:04.830Z,4.88
2022-08-29T15:35:34.310Z,5.13
2022-08-29T15:38:02.863Z,7.25
2022-08-29T15:40:31.121Z,3.20
2022-08-29T15:42:59.422Z,3.13
2022-08-29T15:45:27.583Z,3.58
2022-08-29T15:47:55.985Z,4.05
2022-08-29T15:50:27.944Z,4.53
2022-08-29T15:52:56.504Z,4.18
2022-08-29T15:55:24.817Z,4.10
2022-08-29T15:57:53.225Z,3.33
2022-08-29T16:00:30.090Z,5.38
2022-08-29T16:03:02.834Z,1.75
2022-08-29T16:05:33.364Z,6.07
2022-08-29T16:08:01.879Z,9.63
2022-08-29T16:10:30.495Z,4.93
2022-08-29T16:12:58.676Z,7.22
2022-08-29T16:15:27.839Z,4.57
2022-08-29T16:17:56.096Z,3.60
2022-08-29T16:20:24.278Z,4.28
2022-08-29T16:22:54.028Z,3.88
2022-08-29T16:25:23.113Z,3.70
2022-08-29T16:27:51.346Z,7.13
2022-08-29T16:30:20.281Z,3.35
2022-08-29T16:32:49.590Z,3.40
2022-08-29T16:35:18.113Z,6.82
2022-08-29T16:37:46.736Z,4.90
2022-08-29T16:40:29.989Z,4.20
2022-08-29T16:42:58.155Z,5.95
2022-08-29T16:45:26.468Z,4.28
2022-08-29T16:47:57.554Z,5.57
2022-08-29T16:50:26.047Z,4.20
2022-08-29T16:52:54.541Z,3.53
2022-08-29T16:55:23.135Z,5.03
2022-08-29T16:58:06.495Z,6.95
2022-08-29T17:00:34.929Z,4.18
2022-08-29T17:03:03.211Z,4.53
2022-08-29T17:05:31.575Z,4.68
2022-08-29T17:07:58.700Z,4.13
2022-08-29T17:10:25.789Z,4.25
2022-08-29T17:12:54.496Z,4.30
2022-08-29T17:15:21.855Z,7.78
2022-08-29T17:17:50.102Z,4.78
2022-08-29T17:20:20.335Z,2.90
2022-08-29T17:22:48.527Z,4.40
2022-08-29T17:25:16.876Z,3.60
2022-08-29T17:28:00.955Z,3.63
2022-08-29T17:30:34.594Z,4.35
2022-08-29T17:33:02.795Z,2.25
2022-08-29T17:35:31.340Z,3.10
2022-08-29T17:37:59.754Z,4.22
2022-08-29T17:40:27.902Z,4.10
2022-08-29T17:42:56.185Z,5.10
2022-08-29T17:45:24.459Z,5.40
2022-08-29T17:47:53.872Z,4.38
2022-08-29T17:50:22.736Z,4.15
2022-08-29T17:52:50.872Z,9.10
2022-08-29T17:55:20.251Z,6.72
2022-08-29T17:57:48.560Z,6.95
2022-08-29T18:00:17.719Z,4.40
2022-08-29T18:02:46.305Z,4.57
2022-08-29T18:05:15.812Z,9.85
2022-08-29T18:07:43.945Z,6.60
2022-08-29T18:10:15.461Z,5.10
2022-08-29T18:12:43.756Z,4.03
2022-08-29T18:15:12.859Z,7.82
2022-08-29T18:17:41.511Z,6.28
2022-08-29T18:20:12.302Z,8.65
2022-08-29T18:22:43.067Z,4.65
2022-08-29T18:25:11.653Z,4.68
2022-08-29T18:27:43.645Z,4.82
2022-08-29T18:30:14.238Z,4.00
2022-08-29T18:32:42.971Z,7.90
2022-08-29T18:35:12.344Z,6.47
2022-08-29T18:37:42.352Z,7.53
2022-08-29T18:40:11.555Z,5.22
2022-08-29T18:42:41.246Z,6.18
2022-08-29T18:45:11.169Z,6.15
2022-08-29T18:47:39.394Z,5.93
2022-08-29T18:50:26.665Z,5.13
2022-08-29T18:52:56.754Z,6.72
2022-08-29T18:55:25.243Z,6.35
2022-08-29T18:57:54.131Z,5.88
2022-08-29T19:00:25.052Z,5.50
2022-08-29T19:02:53.882Z,6.18
2022-08-29T19:05:24.479Z,5.35
2022-08-29T19:07:53.110Z,5.22
2022-08-29T19:10:25.958Z,4.65
2022-08-29T19:12:55.263Z,5.25
2022-08-29T19:15:26.032Z,5.90
2022-08-29T19:17:54.990Z,6.78
2022-08-29T19:20:43.356Z,4.40
2022-08-29T19:23:11.828Z,6.85
2022-08-29T19:25:42.028Z,7.45
2022-08-29T19:28:11.158Z,5.93
2022-08-29T19:30:39.965Z,4.65
2022-08-29T19:33:08.861Z,5.35
2022-08-29T19:35:38.518Z,6.47
2022-08-29T19:38:07.492Z,5.88
2022-08-29T19:40:39.363Z,7.93
2022-08-29T19:43:13.851Z,5.50
2022-08-29T19:45:44.373Z,8.60
2022-08-29T19:51:01.510Z,10.07
2022-08-29T19:53:29.741Z,5.50
2022-08-29T19:55:57.951Z,7.85
2022-08-29T19:58:31.925Z,4.80
2022-08-29T20:01:01.679Z,7.50
2022-08-29T20:03:30.929Z,8.05
2022-08-29T20:05:59.662Z,5.75
2022-08-29T20:08:29.190Z,5.07
2022-08-29T20:10:59.616Z,4.78
2022-08-29T20:13:34.080Z,11.55
2022-08-29T20:16:04.441Z,5.35
2022-08-29T20:18:33.203Z,6.55
2022-08-29T20:21:01.745Z,5.15
2022-08-29T20:23:31.712Z,6.97
2022-08-29T20:26:01.667Z,2.80
2022-08-29T20:28:31.756Z,5.82
2022-08-29T20:31:00.814Z,3.75
2022-08-29T20:33:29.322Z,4.75
2022-08-29T20:36:15.060Z,4.22
2022-08-29T20:38:43.202Z,4.35
2022-08-29T20:41:12.200Z,5.35
2022-08-29T20:43:41.667Z,9.50
2022-08-29T20:46:11.107Z,8.57
2022-08-29T20:48:39.306Z,6.28
2022-08-29T20:51:09.776Z,5.00
2022-08-29T20:53:39.542Z,5.68
2022-08-29T20:56:08.022Z,6.10
2022-08-29T20:58:36.511Z,4.78
2022-08-29T21:01:06.340Z,4.65
2022-08-29T21:03:52.680Z,5.68
2022-08-29T21:06:21.871Z,5.00
2022-08-29T21:08:50.067Z,4.70
2022-08-29T21:11:18.330Z,7.20
2022-08-29T21:13:46.704Z,5.90
2022-08-29T21:16:17.789Z,3.92
2022-08-29T21:18:46.021Z,7.63
2022-08-29T21:21:15.866Z,6.20
2022-08-29T21:23:44.016Z,8.02
2022-08-29T21:26:13.905Z,6.15
2022-08-29T21:28:46.564Z,4.93
2022-08-29T21:31:17.220Z,4.25
2022-08-29T21:33:46.779Z,5.00
2022-08-29T21:36:18.756Z,5.72
2022-08-29T21:38:47.222Z,8.32
2022-08-29T21:41:17.478Z,6.82
2022-08-29T21:43:45.855Z,9.10
2022-08-29T21:46:18.433Z,6.18
2022-08-29T21:48:48.072Z,7.05
2022-08-29T21:51:18.873Z,6.20
2022-08-29T21:53:47.798Z,6.72
2022-08-29T21:56:15.962Z,6.60
2022-08-29T21:58:44.113Z,6.90
2022-08-29T22:01:12.371Z,7.82
2022-08-29T22:03:42.264Z,6.07
2022-08-29T22:06:11.286Z,5.28
2022-08-29T22:08:39.781Z,7.25
